»·PEaware :: N87CE KTEX-KSEZ

N87CE :: KTEX-KSEZ

FLIGHT INFORMATION

Flight Status: Arrived
Operator: Privately registered:
United States
More flights under this callsign
Pilot: Anonymous 18904 (18904)
Aircraft: BEECH AIRCRAFT SUPER KING AIR 350
(B350)
More flights by this aircraft type
Origin: KTEX Telluride Regl
United States
Destination: KSEZ Sedona
United States
More flights between these airports :: More routes between these airports
Route: ETL V382 DRO V95 INW V291 FLG
File this flight plan on PilotEdge
Remarks: RMK / HONK )
Altitude:
(Current/Filed)
24,000ft
Speed:
(Current/Filed)
275kts
Departed: 18-Nov-23 06:33 PM
Arrived: 18-Nov-23 07:48 PM
Distance/Time
Traveled:
264nm/1:14
Distance/Time
To Go:
Arrived

Flight Plot

Page will automatically refresh every two minutes.

Flight plan parsing failed; only flown route is shown


Map Options




Map Legend


Flown Route
Filed Route
Departure Airport
Arrival Airport
Navaid (VOR, NDB)
Fix

Horizontal Profiles

Position Reports

Time Latitude Longitude Heading Altitude Ground
Speed
18-Nov-23 18:21 37.954500 -107.902608 279 9054ft 0kts
18-Nov-23 18:22 37.954500 -107.902608 279 9054ft 0kts
18-Nov-23 18:23 37.954500 -107.902608 279 9054ft 0kts
18-Nov-23 18:24 37.954500 -107.902608 279 9054ft 0kts
18-Nov-23 18:25 37.954500 -107.902608 279 9054ft 0kts
18-Nov-23 18:26 37.954500 -107.902608 279 9054ft 0kts
18-Nov-23 18:27 37.954500 -107.902608 279 9054ft 0kts
18-Nov-23 18:28 37.954500 -107.902608 279 9054ft 0kts
18-Nov-23 18:29 37.954500 -107.902608 279 9054ft 0kts
18-Nov-23 18:30 37.953420 -107.901351 110 9054ft 13kts
18-Nov-23 18:31 37.952512 -107.897332 105 9069ft 10kts
18-Nov-23 18:32 37.953679 -107.908016 285 9021ft 129kts
18-Nov-23 18:33 37.965992 -107.969931 284 10818ft 197kts
18-Nov-23 18:34 37.981185 -108.030019 286 14166ft 163kts
18-Nov-23 18:35 37.995006 -108.083218 286 16949ft 158kts
18-Nov-23 18:36 38.008829 -108.136493 286 19423ft 160kts
18-Nov-23 18:37 38.022091 -108.188644 280 21841ft 149kts
18-Nov-23 18:38 37.999245 -108.230064 203 23884ft 187kts
18-Nov-23 18:39 37.935932 -108.201908 158 24094ft 283kts
18-Nov-23 18:40 37.861831 -108.155412 162 24133ft 306kts
18-Nov-23 18:41 37.783034 -108.109676 163 24136ft 316kts
18-Nov-23 18:42 37.702467 -108.063240 163 24137ft 319kts
18-Nov-23 18:43 37.621935 -108.016927 163 24142ft 318kts
18-Nov-23 18:44 37.541328 -107.970696 163 24141ft 318kts
18-Nov-23 18:45 37.460814 -107.924638 164 24161ft 317kts
18-Nov-23 18:46 37.380337 -107.878709 164 24152ft 315kts
18-Nov-23 18:47 37.300778 -107.833449 164 24159ft 314kts
18-Nov-23 18:48 37.221066 -107.788198 164 24136ft 316kts
18-Nov-23 18:49 37.140191 -107.763116 201 24140ft 283kts
18-Nov-23 18:50 37.077291 -107.812246 224 24139ft 265kts
18-Nov-23 18:51 37.017628 -107.867174 222 24156ft 267kts
18-Nov-23 18:52 36.956452 -107.920358 221 24156ft 268kts
18-Nov-23 18:53 36.895021 -107.973280 221 24170ft 268kts
18-Nov-23 18:54 36.833546 -108.026166 221 24174ft 268kts
18-Nov-23 18:55 36.772113 -108.078924 221 24168ft 269kts
18-Nov-23 18:56 36.721252 -108.143849 238 24166ft 260kts
18-Nov-23 18:57 36.677930 -108.216248 238 24160ft 260kts
18-Nov-23 18:58 36.634289 -108.288629 237 24159ft 261kts
18-Nov-23 18:59 36.590577 -108.360868 237 24157ft 261kts
18-Nov-23 19:00 36.546925 -108.432828 237 24152ft 261kts
18-Nov-23 19:01 36.503036 -108.505050 237 24142ft 261kts
18-Nov-23 19:03 36.465949 -108.581536 247 24139ft 258kts
18-Nov-23 19:04 36.434454 -108.661856 246 24130ft 258kts
18-Nov-23 19:05 36.402085 -108.741495 246 24127ft 258kts
18-Nov-23 19:06 36.369420 -108.821275 246 24109ft 259kts
18-Nov-23 19:07 36.336728 -108.900931 246 24092ft 260kts
18-Nov-23 19:08 36.303891 -108.980736 246 24092ft 260kts
18-Nov-23 19:09 36.270822 -109.060876 246 24085ft 262kts
18-Nov-23 19:10 36.243714 -109.126477 246 24086ft 263kts
18-Nov-23 19:11 36.210211 -109.207303 246 24086ft 263kts
18-Nov-23 19:12 36.176776 -109.287791 246 24077ft 264kts
18-Nov-23 19:13 36.143174 -109.368479 246 24075ft 264kts
18-Nov-23 19:14 36.109387 -109.449405 245 24057ft 264kts
18-Nov-23 19:15 36.075598 -109.530161 245 24061ft 264kts
18-Nov-23 19:16 36.041799 -109.610707 245 24059ft 264kts
18-Nov-23 19:17 36.007884 -109.691360 245 24057ft 264kts
18-Nov-23 19:18 35.974030 -109.771652 245 24055ft 263kts
18-Nov-23 19:19 35.940108 -109.851911 245 24049ft 263kts
18-Nov-23 19:20 35.906297 -109.931720 245 24048ft 263kts
18-Nov-23 19:21 35.872207 -110.011989 245 24047ft 264kts
18-Nov-23 19:22 35.838117 -110.092065 245 24044ft 264kts
18-Nov-23 19:23 35.803862 -110.172328 245 24040ft 265kts
18-Nov-23 19:24 35.769437 -110.252815 245 24028ft 266kts
18-Nov-23 19:25 35.734774 -110.333642 245 24025ft 267kts
18-Nov-23 19:26 35.700160 -110.414147 245 24020ft 266kts
18-Nov-23 19:27 35.665485 -110.494618 245 24014ft 266kts
18-Nov-23 19:28 35.630683 -110.575167 245 24011ft 267kts
18-Nov-23 19:29 35.595824 -110.655678 245 24007ft 266kts
18-Nov-23 19:30 35.560971 -110.735968 245 24009ft 266kts
18-Nov-23 19:31 35.526019 -110.816293 245 24005ft 266kts
18-Nov-23 19:32 35.490974 -110.896632 245 24002ft 266kts
18-Nov-23 19:33 35.456031 -110.976561 245 24001ft 266kts
18-Nov-23 19:33 35.426776 -111.043336 245 24001ft 266kts
18-Nov-23 19:34 35.391791 -111.122979 245 24000ft 266kts
18-Nov-23 19:35 35.356941 -111.202441 245 22863ft 264kts
18-Nov-23 19:37 35.315950 -111.295005 244 21041ft 265kts
18-Nov-23 19:38 35.280880 -111.374224 244 19631ft 266kts
18-Nov-23 19:38 35.251508 -111.440441 244 18555ft 266kts
18-Nov-23 19:39 35.216539 -111.518985 244 17164ft 264kts
18-Nov-23 19:40 35.181817 -111.597160 244 15377ft 260kts
18-Nov-23 19:41 35.142654 -111.670494 221 13002ft 262kts
18-Nov-23 19:43 35.067731 -111.703732 203 12014ft 227kts
18-Nov-23 19:43 35.017198 -111.724148 201 11118ft 249kts
18-Nov-23 19:44 34.946384 -111.728666 169 8789ft 251kts
18-Nov-23 19:45 34.890464 -111.738648 217 6480ft 169kts
18-Nov-23 19:46 34.862410 -111.771244 225 5187ft 113kts
18-Nov-23 19:47 34.847994 -111.789781 316 4777ft 13kts
18-Nov-23 19:48 34.849058 -111.789868 140 4785ft 0kts
18-Nov-23 19:49 34.849058 -111.789868 140 4785ft 0kts

Navigation Log

Ident Type
Flight plan parsing failed, navigation log unavailable